Time;durP1;ratioP1;P1;durP2;ratioP2;P2;SDS_P1;SDS_P2;PMS_P1;PMS_P2;Temp;Humidity;BMP_temperature;BMP_pressure;BME280_temperature;BME280_humidity;BME280_pressure;Samples;Min_cycle;Max_cycle;Signal;HPM_P1;HPM_P2
2022/07/18 00:00:37;;;;;;;1.58;0.60;;;18.40;67.10;;;;;;5072233;28;20062;-75
2022/07/18 00:03:03;;;;;;;1.27;0.60;;;18.40;67.10;;;;;;5061574;28;20379;-75
2022/07/18 00:05:30;;;;;;;2.72;0.80;;;18.30;66.90;;;;;;5103618;28;20359;-75
2022/07/18 00:07:56;;;;;;;1.42;0.65;;;18.30;67.50;;;;;;5090072;28;20028;-74
2022/07/18 00:10:23;;;;;;;1.67;0.60;;;18.30;67.40;;;;;;5053273;28;20036;-75
2022/07/18 00:12:49;;;;;;;2.22;0.70;;;18.30;67.40;;;;;;5091841;28;20040;-75
2022/07/18 00:15:15;;;;;;;1.80;0.65;;;18.20;67.40;;;;;;5089980;28;20024;-75
2022/07/18 00:17:42;;;;;;;3.00;0.60;;;18.20;67.50;;;;;;5089044;28;20031;-75
2022/07/18 00:20:10;;;;;;;1.88;0.60;;;18.20;67.60;;;;;;5095194;28;20043;-75
2022/07/18 00:22:36;;;;;;;1.73;0.70;;;18.10;67.70;;;;;;5058808;28;20041;-75
2022/07/18 00:25:04;;;;;;;2.53;0.70;;;18.10;67.60;;;;;;5078466;28;20043;-75
2022/07/18 00:27:30;;;;;;;3.47;0.80;;;18.10;67.60;;;;;;5091312;28;20387;-75
2022/07/18 00:29:56;;;;;;;1.30;0.70;;;18.10;67.70;;;;;;5092653;28;20043;-75
2022/07/18 00:32:23;;;;;;;1.40;0.60;;;18.00;68.40;;;;;;5104021;28;20028;-75
2022/07/18 00:34:50;;;;;;;2.22;0.70;;;18.00;67.90;;;;;;5093186;28;20040;-75
2022/07/18 00:37:16;;;;;;;1.48;0.60;;;18.00;68.10;;;;;;5098360;28;20036;-75
2022/07/18 00:39:43;;;;;;;1.70;0.70;;;18.00;68.00;;;;;;5085701;28;20039;-74
2022/07/18 00:42:09;;;;;;;2.28;0.70;;;17.90;68.00;;;;;;5080429;28;20044;-74
2022/07/18 00:44:36;;;;;;;2.50;0.88;;;17.90;68.10;;;;;;5103627;28;20475;-75
2022/07/18 00:47:03;;;;;;;1.60;0.75;;;17.80;68.00;;;;;;5062191;28;20036;-74
2022/07/18 00:49:30;;;;;;;1.42;0.52;;;17.80;68.00;;;;;;5096752;28;20036;-75
2022/07/18 00:51:56;;;;;;;1.50;0.57;;;17.80;68.00;;;;;;5100848;28;20063;-74
2022/07/18 00:54:23;;;;;;;1.63;0.60;;;17.80;68.10;;;;;;5086072;28;20063;-75
2022/07/18 00:56:50;;;;;;;1.77;0.65;;;17.80;68.20;;;;;;5101016;28;20043;-75
2022/07/18 00:59:17;;;;;;;1.77;0.70;;;17.70;68.20;;;;;;5099961;28;20394;-74
2022/07/18 01:01:47;;;;;;;2.92;0.70;;;17.70;68.20;;;;;;5099139;28;20384;-75
2022/07/18 01:04:16;;;;;;;2.60;0.60;;;17.70;68.20;;;;;;5100727;28;20046;-74
2022/07/18 01:06:43;;;;;;;1.50;0.60;;;17.70;68.30;;;;;;5099791;28;20033;-75
2022/07/18 01:09:10;;;;;;;2.22;0.70;;;17.60;68.30;;;;;;5080664;28;20051;-75
2022/07/18 01:11:36;;;;;;;1.60;0.65;;;17.60;68.30;;;;;;5101539;28;20038;-75
2022/07/18 01:14:04;;;;;;;1.45;0.70;;;17.60;68.40;;;;;;5106317;28;20039;-75
2022/07/18 01:16:31;;;;;;;1.35;0.73;;;17.60;68.50;;;;;;5086902;28;20032;-74
2022/07/18 01:18:58;;;;;;;1.58;0.77;;;17.60;68.60;;;;;;5081931;28;20059;-75
2022/07/18 01:21:25;;;;;;;1.80;0.60;;;17.60;68.50;;;;;;5101414;28;20044;-75
2022/07/18 01:23:51;;;;;;;1.75;0.60;;;17.50;68.40;;;;;;5083574;28;20386;-74
2022/07/18 01:26:19;;;;;;;3.33;0.90;;;17.50;68.40;;;;;;5065717;28;20036;-75
2022/07/18 01:28:46;;;;;;;1.90;0.90;;;17.50;68.50;;;;;;5103473;28;20035;-75
2022/07/18 01:31:13;;;;;;;1.95;0.80;;;17.50;68.50;;;;;;5097464;28;20035;-75
2022/07/18 01:33:40;;;;;;;1.63;0.82;;;17.50;68.60;;;;;;5071064;28;20036;-74
2022/07/18 01:36:07;;;;;;;3.75;0.75;;;17.50;68.60;;;;;;5101734;28;20023;-75
2022/07/18 01:38:34;;;;;;;2.20;0.63;;;17.40;68.50;;;;;;5100630;28;20031;-75
2022/07/18 01:41:01;;;;;;;1.90;0.70;;;17.40;68.60;;;;;;5098932;28;20055;-74
2022/07/18 01:43:27;;;;;;;1.55;0.80;;;17.40;68.60;;;;;;5099835;28;20035;-75
2022/07/18 01:45:54;;;;;;;1.85;0.80;;;17.30;68.60;;;;;;5081057;28;20047;-75
2022/07/18 01:48:23;;;;;;;2.08;1.02;;;17.40;68.90;;;;;;5101540;28;20024;-75
2022/07/18 01:50:50;;;;;;;1.60;0.80;;;17.40;69.00;;;;;;5081298;28;20375;-74
2022/07/18 01:53:16;;;;;;;1.88;0.80;;;17.40;68.90;;;;;;5100505;28;20475;-74
2022/07/18 01:55:43;;;;;;;1.50;0.70;;;17.30;68.70;;;;;;5104133;28;20031;-75
2022/07/18 01:58:09;;;;;;;2.05;0.75;;;17.40;68.90;;;;;;5098538;28;20031;-74
2022/07/18 02:00:35;;;;;;;1.67;0.75;;;17.40;68.90;;;;;;5065342;28;20048;-74
2022/07/18 02:03:02;;;;;;;1.95;0.80;;;17.40;68.90;;;;;;5100009;28;20032;-75
2022/07/18 02:05:28;;;;;;;1.83;0.80;;;17.30;69.00;;;;;;5099704;28;20036;-75
2022/07/18 02:07:54;;;;;;;2.58;0.88;;;17.30;69.10;;;;;;5081803;28;20114;-74
2022/07/18 02:10:21;;;;;;;1.80;0.75;;;17.30;69.20;;;;;;5101160;28;20046;-74
2022/07/18 02:12:48;;;;;;;2.80;0.80;;;17.20;69.30;;;;;;5096751;28;20027;-75
2022/07/18 02:15:15;;;;;;;3.03;1.13;;;17.20;69.40;;;;;;5101486;28;20031;-74
2022/07/18 02:17:43;;;;;;;5.65;1.15;;;17.20;69.80;;;;;;5100307;28;20035;-74
2022/07/18 02:20:11;;;;;;;2.00;0.93;;;17.20;70.00;;;;;;5099024;28;20360;-75
2022/07/18 02:22:38;;;;;;;2.70;1.08;;;17.20;69.90;;;;;;5103598;28;20036;-75
2022/07/18 02:25:06;;;;;;;3.25;0.80;;;17.20;70.00;;;;;;5099454;28;20042;-74
2022/07/18 02:27:32;;;;;;;1.38;0.70;;;17.20;70.00;;;;;;5096096;28;20032;-75
2022/07/18 02:29:58;;;;;;;1.50;0.80;;;17.10;70.10;;;;;;5081145;28;20040;-75
2022/07/18 02:32:25;;;;;;;2.03;1.00;;;17.00;70.50;;;;;;5083268;28;20351;-74
2022/07/18 02:34:51;;;;;;;2.55;0.90;;;17.00;70.30;;;;;;5100659;28;20040;-74
2022/07/18 02:37:18;;;;;;;1.25;0.70;;;17.00;70.40;;;;;;5098749;28;20040;-75
2022/07/18 02:39:44;;;;;;;3.63;0.75;;;16.90;70.60;;;;;;5098330;28;20031;-75
2022/07/18 02:42:10;;;;;;;2.38;0.80;;;16.90;70.80;;;;;;5085565;28;20050;-75
2022/07/18 02:44:37;;;;;;;2.35;0.70;;;16.90;70.90;;;;;;5100985;28;20059;-75
2022/07/18 02:47:03;;;;;;;2.22;1.17;;;16.80;71.00;;;;;;5098705;28;20040;-75
2022/07/18 02:49:31;;;;;;;3.78;2.30;;;16.80;71.00;;;;;;5064009;28;20024;-75
2022/07/18 02:52:03;;;;;;;4.03;2.10;;;16.80;71.00;;;;;;5097295;28;20039;-75
2022/07/18 02:54:32;;;;;;;3.60;1.48;;;16.80;71.10;;;;;;5080315;28;20031;-75
2022/07/18 02:56:58;;;;;;;1.92;0.90;;;16.70;71.10;;;;;;5102238;28;20365;-75
2022/07/18 02:59:27;;;;;;;2.55;1.00;;;16.70;71.30;;;;;;5098020;28;20059;-75
2022/07/18 03:01:54;;;;;;;1.92;0.90;;;16.70;71.40;;;;;;5102589;28;20475;-74
2022/07/18 03:04:22;;;;;;;4.57;0.90;;;16.70;71.60;;;;;;5085947;28;20028;-75
2022/07/18 03:06:49;;;;;;;1.65;0.73;;;16.70;71.80;;;;;;5086542;28;20028;-75
2022/07/18 03:09:16;;;;;;;1.95;0.90;;;16.60;71.80;;;;;;5097921;28;20028;-74
2022/07/18 03:11:43;;;;;;;2.42;0.75;;;16.60;71.80;;;;;;5098200;28;20028;-75
2022/07/18 03:14:09;;;;;;;2.97;1.05;;;16.60;71.90;;;;;;5104890;28;20573;-75
2022/07/18 03:16:36;;;;;;;2.15;0.70;;;16.60;71.90;;;;;;5066620;28;20059;-75
2022/07/18 03:19:02;;;;;;;2.22;0.60;;;16.60;71.90;;;;;;5095086;28;20036;-75
2022/07/18 03:21:29;;;;;;;2.40;0.82;;;16.60;71.90;;;;;;5097835;28;20051;-75
2022/07/18 03:23:56;;;;;;;2.42;0.68;;;16.50;71.80;;;;;;5101639;28;20039;-75
2022/07/18 03:26:22;;;;;;;1.63;0.70;;;16.50;71.80;;;;;;5101771;28;20471;-75
2022/07/18 03:28:49;;;;;;;1.67;0.80;;;16.50;71.90;;;;;;5097897;28;20032;-75
2022/07/18 03:31:15;;;;;;;1.80;0.80;;;16.50;71.90;;;;;;5097329;28;20031;-75
2022/07/18 03:33:41;;;;;;;1.83;0.80;;;16.50;72.10;;;;;;5101266;28;20032;-74
2022/07/18 03:36:08;;;;;;;2.03;0.80;;;16.50;72.10;;;;;;5057922;28;20470;-75
2022/07/18 03:38:36;;;;;;;1.35;0.60;;;16.60;72.10;;;;;;5095977;28;20035;-75
2022/07/18 03:41:03;;;;;;;3.10;0.80;;;16.60;72.10;;;;;;5060393;28;20040;-74
2022/07/18 03:43:30;;;;;;;2.00;0.70;;;16.50;72.20;;;;;;5075321;28;20037;-75
2022/07/18 03:45:57;;;;;;;2.30;0.70;;;16.50;72.20;;;;;;5099081;28;20040;-74
2022/07/18 03:48:23;;;;;;;2.65;0.50;;;16.50;72.40;;;;;;5099579;28;20027;-74
2022/07/18 03:50:50;;;;;;;2.25;0.80;;;16.50;73.00;;;;;;5075747;28;20041;-74
2022/07/18 03:53:16;;;;;;;1.48;0.65;;;16.50;72.60;;;;;;5081655;28;20474;-74
2022/07/18 03:55:42;;;;;;;2.30;0.70;;;16.50;72.60;;;;;;5082250;28;20039;-74
2022/07/18 03:58:09;;;;;;;1.88;0.80;;;16.50;72.70;;;;;;5096313;28;20040;-74
2022/07/18 04:00:35;;;;;;;2.22;0.70;;;16.50;72.70;;;;;;5076950;28;20047;-74
2022/07/18 04:03:02;;;;;;;1.55;0.70;;;16.50;72.60;;;;;;5099782;28;20039;-75
2022/07/18 04:05:28;;;;;;;1.50;0.68;;;16.50;72.60;;;;;;5093855;28;20043;-74
2022/07/18 04:07:54;;;;;;;1.05;0.60;;;16.60;72.60;;;;;;5098700;28;20047;-75
2022/07/18 04:10:21;;;;;;;2.72;0.80;;;16.60;72.60;;;;;;5086173;28;20040;-75
2022/07/18 04:12:51;;;;;;;3.92;0.90;;;16.60;72.50;;;;;;5098982;28;20050;-74
2022/07/18 04:15:20;;;;;;;1.65;0.60;;;16.60;72.40;;;;;;5100250;28;20054;-74
2022/07/18 04:17:46;;;;;;;1.75;0.70;;;16.70;72.50;;;;;;5084956;28;20046;-74
2022/07/18 04:20:14;;;;;;;1.77;0.70;;;16.70;72.60;;;;;;5097299;28;20055;-74
2022/07/18 04:22:50;;;;;;;3.67;0.68;;;16.80;72.70;;;;;;5102344;28;20043;-74
2022/07/18 04:25:18;;;;;;;1.25;0.60;;;16.80;72.80;;;;;;5097882;28;20036;-75
2022/07/18 04:27:45;;;;;;;1.73;0.70;;;16.80;72.80;;;;;;5097618;28;20032;-76
2022/07/18 04:30:11;;;;;;;1.80;0.70;;;16.80;72.80;;;;;;5094742;28;20028;-75
2022/07/18 04:32:38;;;;;;;1.77;0.68;;;16.80;72.90;;;;;;5094784;28;20036;-75
2022/07/18 04:35:06;;;;;;;1.20;0.60;;;16.90;73.00;;;;;;5078493;28;20038;-75
2022/07/18 04:37:33;;;;;;;2.45;0.50;;;16.90;73.20;;;;;;5096143;28;20027;-75
2022/07/18 04:40:00;;;;;;;2.50;0.60;;;17.00;73.30;;;;;;5096602;28;20027;-75
2022/07/18 04:42:27;;;;;;;1.85;0.70;;;17.10;73.40;;;;;;5098047;28;20025;-75
2022/07/18 04:44:54;;;;;;;3.35;0.95;;;17.20;73.40;;;;;;5090163;28;20028;-75
2022/07/18 04:47:20;;;;;;;2.78;0.93;;;17.20;73.80;;;;;;5095230;28;20059;-75
2022/07/18 04:49:46;;;;;;;2.85;0.95;;;17.30;73.20;;;;;;5076718;28;20383;-75
2022/07/18 04:52:13;;;;;;;1.95;0.75;;;17.40;73.70;;;;;;5054867;28;20040;-75
2022/07/18 04:54:39;;;;;;;2.28;1.10;;;17.60;73.20;;;;;;5075131;28;20485;-75
2022/07/18 04:57:05;;;;;;;2.03;0.90;;;17.70;73.20;;;;;;5097691;28;20032;-76
2022/07/18 04:59:32;;;;;;;2.88;1.00;;;17.80;73.00;;;;;;5094947;28;20098;-75
2022/07/18 05:01:58;;;;;;;2.90;1.02;;;18.00;73.00;;;;;;5089195;28;20032;-74
2022/07/18 05:04:24;;;;;;;2.22;0.88;;;18.10;72.70;;;;;;5096675;28;20055;-76
2022/07/18 05:06:51;;;;;;;4.55;1.20;;;18.30;72.60;;;;;;5082977;28;20525;-76
2022/07/18 05:09:17;;;;;;;2.75;1.00;;;18.40;72.40;;;;;;5093446;28;20032;-77
2022/07/18 05:11:43;;;;;;;1.85;0.70;;;18.50;72.30;;;;;;5095434;28;20051;-76
2022/07/18 05:14:10;;;;;;;2.42;0.88;;;18.70;72.20;;;;;;5079657;28;20032;-75
2022/07/18 05:16:36;;;;;;;2.42;0.77;;;18.80;72.10;;;;;;5094758;28;20028;-76
2022/07/18 05:19:03;;;;;;;2.90;1.45;;;18.90;71.70;;;;;;5077941;28;20036;-75
2022/07/18 05:21:30;;;;;;;2.28;1.20;;;19.10;71.70;;;;;;5096005;28;20047;-75
2022/07/18 05:23:56;;;;;;;2.67;1.05;;;19.30;71.50;;;;;;5097120;28;20031;-75
2022/07/18 05:26:23;;;;;;;2.50;1.20;;;19.40;71.30;;;;;;5104135;28;20024;-75
2022/07/18 05:28:51;;;;;;;4.45;1.60;;;19.50;71.20;;;;;;5091974;28;20028;-75
2022/07/18 05:31:18;;;;;;;2.55;1.00;;;19.60;71.20;;;;;;5092274;28;21152;-75
2022/07/18 05:33:44;;;;;;;3.13;1.50;;;19.80;71.00;;;;;;5102092;28;20039;-76
2022/07/18 05:36:11;;;;;;;3.85;1.23;;;19.90;70.80;;;;;;5091391;28;20044;-75
2022/07/18 05:38:37;;;;;;;2.80;0.95;;;19.90;70.80;;;;;;5085420;28;20047;-75
2022/07/18 05:41:03;;;;;;;3.00;1.20;;;19.80;71.00;;;;;;5099299;28;20040;-76
2022/07/18 05:43:30;;;;;;;4.40;1.00;;;19.60;71.20;;;;;;5096155;28;20028;-76
2022/07/18 05:45:56;;;;;;;4.65;1.15;;;19.50;71.50;;;;;;5087835;28;20035;-76
2022/07/18 05:48:23;;;;;;;3.75;1.10;;;19.40;71.80;;;;;;5096358;28;20032;-76
2022/07/18 05:50:49;;;;;;;3.40;1.20;;;19.30;72.10;;;;;;5095435;28;20032;-76
2022/07/18 05:53:15;;;;;;;3.28;1.20;;;19.30;72.30;;;;;;5098097;28;20044;-76
2022/07/18 05:55:42;;;;;;;3.75;1.30;;;19.20;72.40;;;;;;5089484;28;20043;-76
2022/07/18 05:58:08;;;;;;;2.53;1.50;;;19.10;72.70;;;;;;5097650;28;20032;-76
2022/07/18 06:00:34;;;;;;;4.40;1.48;;;19.10;73.10;;;;;;5102357;28;20036;-76
2022/07/18 06:03:01;;;;;;;4.20;1.67;;;19.30;73.00;;;;;;5097853;28;20031;-77
2022/07/18 06:05:27;;;;;;;3.78;1.33;;;19.60;72.70;;;;;;5101117;28;21563;-76
2022/07/18 06:07:55;;;;;;;3.50;1.10;;;19.90;72.20;;;;;;5095832;28;20039;-77
2022/07/18 06:10:23;;;;;;;4.43;1.40;;;20.20;71.70;;;;;;5098356;28;20043;-77
2022/07/18 06:12:50;;;;;;;2.75;1.35;;;20.40;71.30;;;;;;5065222;28;20409;-77
2022/07/18 06:15:16;;;;;;;4.25;1.38;;;20.70;71.00;;;;;;5072947;28;20399;-77
2022/07/18 06:17:43;;;;;;;4.63;1.27;;;21.00;70.30;;;;;;5082795;28;20387;-77
2022/07/18 06:20:10;;;;;;;2.92;1.25;;;21.50;69.70;;;;;;5066786;28;20053;-77
2022/07/18 06:22:36;;;;;;;2.20;1.20;;;21.80;69.10;;;;;;5097611;28;20040;-77
2022/07/18 06:25:03;;;;;;;2.60;1.10;;;22.00;68.60;;;;;;5094513;28;20413;-76
2022/07/18 06:27:30;;;;;;;3.38;1.42;;;22.10;68.30;;;;;;5100517;28;20629;-76
2022/07/18 06:29:58;;;;;;;2.92;1.13;;;22.10;68.40;;;;;;5098871;28;20407;-76
2022/07/18 06:32:25;;;;;;;2.92;1.35;;;22.10;68.40;;;;;;5080145;28;20040;-76
2022/07/18 06:34:51;;;;;;;5.53;1.65;;;22.20;68.30;;;;;;5102291;28;20039;-76
2022/07/18 06:37:18;;;;;;;2.20;0.90;;;22.40;68.10;;;;;;5098707;28;20031;-76
2022/07/18 06:39:44;;;;;;;3.67;1.40;;;22.60;67.80;;;;;;5078314;28;20368;-76
2022/07/18 06:42:10;;;;;;;3.50;1.20;;;22.80;67.50;;;;;;5086564;28;20035;-76
2022/07/18 06:44:38;;;;;;;4.20;1.05;;;23.00;67.40;;;;;;5095974;28;20046;-76
2022/07/18 06:47:11;;;;;;;5.78;1.60;;;23.20;67.10;;;;;;5080873;28;20035;-76
2022/07/18 06:49:37;;;;;;;6.40;1.73;;;23.60;66.40;;;;;;5074522;28;20039;-76
2022/07/18 06:52:04;;;;;;;4.50;1.25;;;23.80;65.70;;;;;;5066601;28;20125;-76
2022/07/18 06:54:33;;;;;;;3.92;1.25;;;24.10;65.30;;;;;;5076718;28;20341;-76
2022/07/18 06:56:59;;;;;;;3.70;1.30;;;24.30;65.10;;;;;;5065668;28;20530;-76
2022/07/18 06:59:26;;;;;;;4.25;1.05;;;24.40;64.80;;;;;;5075171;28;20051;-76
2022/07/18 07:01:52;;;;;;;2.75;1.05;;;24.40;64.50;;;;;;5083924;28;20040;-76
2022/07/18 07:04:18;;;;;;;3.05;1.17;;;24.40;64.30;;;;;;5081626;28;20038;-76
2022/07/18 07:06:45;;;;;;;3.53;1.20;;;24.40;64.20;;;;;;5068910;28;20040;-75
2022/07/18 07:09:11;;;;;;;2.55;1.10;;;24.50;64.60;;;;;;5080528;28;20043;-75
2022/07/18 07:11:38;;;;;;;3.25;1.25;;;24.60;64.00;;;;;;5095415;28;20037;-75
2022/07/18 07:14:04;;;;;;;3.50;1.00;;;24.70;63.90;;;;;;5092446;28;20028;-75
2022/07/18 07:16:30;;;;;;;2.92;1.08;;;24.80;63.80;;;;;;5084020;28;20035;-75
2022/07/18 07:18:57;;;;;;;3.80;1.13;;;24.90;63.60;;;;;;5062457;28;20032;-75
2022/07/18 07:21:23;;;;;;;3.88;0.90;;;25.00;63.40;;;;;;5067151;28;20479;-75
2022/07/18 07:23:49;;;;;;;4.40;1.42;;;25.20;63.50;;;;;;5103275;28;20138;-75
2022/07/18 07:26:16;;;;;;;3.95;0.93;;;25.30;63.10;;;;;;5097172;28;20032;-76
2022/07/18 07:28:42;;;;;;;6.03;1.08;;;25.40;63.00;;;;;;5083023;28;20043;-75
2022/07/18 07:31:08;;;;;;;1.92;0.70;;;25.60;62.70;;;;;;5077990;28;20048;-75
2022/07/18 07:33:35;;;;;;;1.45;0.77;;;25.70;62.50;;;;;;5103235;28;20028;-75
2022/07/18 07:36:03;;;;;;;2.28;0.90;;;25.80;62.30;;;;;;5075145;28;20032;-75
2022/07/18 07:38:29;;;;;;;6.13;0.80;;;25.90;62.00;;;;;;5075135;28;20031;-75
2022/07/18 07:40:56;;;;;;;4.30;1.10;;;26.00;62.20;;;;;;5080593;28;20047;-75
2022/07/18 07:43:24;;;;;;;3.17;0.80;;;26.20;61.70;;;;;;5099888;28;20390;-75
2022/07/18 07:45:52;;;;;;;3.28;1.20;;;26.30;61.50;;;;;;5099739;28;20036;-75
2022/07/18 07:48:19;;;;;;;2.67;0.70;;;26.50;61.40;;;;;;5097956;28;20063;-75
2022/07/18 07:50:46;;;;;;;2.38;0.90;;;26.70;61.20;;;;;;5080255;28;20333;-75
2022/07/18 07:53:12;;;;;;;3.53;0.80;;;26.80;60.90;;;;;;5096062;28;20039;-75
2022/07/18 07:55:38;;;;;;;1.83;0.68;;;27.00;60.70;;;;;;5086334;28;20043;-74
2022/07/18 07:58:05;;;;;;;2.80;0.68;;;27.10;60.30;;;;;;5099701;28;20036;-74
2022/07/18 08:00:31;;;;;;;1.92;0.73;;;27.20;60.10;;;;;;5076711;28;20032;-74
2022/07/18 08:03:01;;;;;;;1.52;0.70;;;27.40;60.00;;;;;;5081887;28;20043;-74
2022/07/18 08:05:29;;;;;;;1.95;0.60;;;27.50;59.50;;;;;;5100069;28;20498;-75
2022/07/18 08:07:57;;;;;;;3.15;0.70;;;27.50;59.20;;;;;;5080183;28;20355;-75
2022/07/18 08:10:23;;;;;;;3.17;0.70;;;27.60;59.30;;;;;;5095867;28;20054;-76
2022/07/18 08:12:50;;;;;;;3.55;1.05;;;27.70;59.20;;;;;;5097058;28;20028;-75
2022/07/18 08:15:16;;;;;;;3.40;1.00;;;27.80;59.40;;;;;;5065281;28;20047;-75
2022/07/18 08:17:43;;;;;;;3.80;1.23;;;28.00;58.60;;;;;;5094035;28;20043;-75
2022/07/18 08:20:11;;;;;;;1.58;0.70;;;28.10;58.60;;;;;;5093519;28;20207;-75
2022/07/18 08:22:55;;;;;;;3.55;0.70;;;28.30;58.20;;;;;;5090684;28;20447;-75
2022/07/18 08:25:22;;;;;;;2.58;0.63;;;28.50;58.00;;;;;;5090754;28;20028;-74
2022/07/18 08:27:49;;;;;;;4.35;0.80;;;28.60;57.70;;;;;;5093412;28;20023;-75
2022/07/18 08:30:16;;;;;;;2.03;0.55;;;28.80;57.40;;;;;;5093781;28;20388;-75
2022/07/18 08:32:42;;;;;;;2.42;0.50;;;28.90;56.80;;;;;;5094192;28;20039;-75
2022/07/18 08:35:09;;;;;;;2.35;0.60;;;29.00;56.00;;;;;;5087217;28;20027;-75
2022/07/18 08:37:35;;;;;;;2.53;0.60;;;29.00;56.10;;;;;;5089559;28;20059;-75
2022/07/18 08:40:02;;;;;;;2.70;0.50;;;29.10;56.00;;;;;;5081215;28;20395;-75
2022/07/18 08:42:32;;;;;;;2.55;0.50;;;29.10;56.00;;;;;;5091254;28;20349;-75
2022/07/18 08:44:58;;;;;;;1.65;0.70;;;29.30;55.80;;;;;;5078177;28;20027;-75
2022/07/18 08:47:27;;;;;;;1.63;0.50;;;29.40;55.50;;;;;;5072827;28;20052;-75
2022/07/18 08:49:54;;;;;;;1.83;0.55;;;29.40;55.40;;;;;;5087129;28;20023;-75
2022/07/18 08:52:21;;;;;;;1.65;0.50;;;29.60;55.30;;;;;;5075287;28;20043;-75
2022/07/18 08:54:50;;;;;;;1.38;0.50;;;29.80;55.30;;;;;;5095531;28;20035;-75
2022/07/18 08:57:19;;;;;;;2.47;0.77;;;29.90;55.20;;;;;;5074135;28;20051;-75
2022/07/18 08:59:46;;;;;;;4.75;0.55;;;30.00;55.00;;;;;;5092533;28;20355;-75
2022/07/18 09:02:13;;;;;;;2.10;0.50;;;30.20;54.80;;;;;;5078240;28;20501;-75
2022/07/18 09:04:42;;;;;;;2.60;0.60;;;30.40;54.70;;;;;;5074154;28;20518;-75
2022/07/18 09:07:10;;;;;;;2.25;0.60;;;30.50;54.30;;;;;;5074112;28;20028;-75
2022/07/18 09:09:37;;;;;;;3.22;0.60;;;30.60;53.90;;;;;;5098349;28;20494;-75
2022/07/18 09:12:09;;;;;;;1.70;0.60;;;30.70;52.80;;;;;;5097627;28;20019;-75
2022/07/18 09:14:42;;;;;;;3.20;0.40;;;30.70;52.80;;;;;;5080832;28;20047;-75
2022/07/18 09:17:12;;;;;;;1.65;0.40;;;30.80;52.70;;;;;;5102992;28;20412;-75
2022/07/18 09:19:57;;;;;;;4.65;0.65;;;30.90;52.80;;;;;;5094421;28;20034;-75
2022/07/18 09:22:25;;;;;;;3.70;0.40;;;31.10;51.60;;;;;;5097805;28;20394;-75
2022/07/18 09:25:07;;;;;;;1.80;0.40;;;31.10;51.10;;;;;;5091469;28;20031;-75
2022/07/18 09:27:37;;;;;;;1.67;0.57;;;31.20;50.40;;;;;;5095235;28;20024;-75
2022/07/18 09:30:20;;;;;;;2.38;0.50;;;31.30;50.80;;;;;;5095635;28;20462;-75
2022/07/18 09:32:53;;;;;;;2.28;0.50;;;31.50;50.70;;;;;;5096425;28;20044;-75
2022/07/18 09:35:26;;;;;;;1.23;0.43;;;31.60;50.30;;;;;;5079968;28;20040;-75
2022/07/18 09:37:58;;;;;;;1.65;0.47;;;31.80;50.90;;;;;;5091429;28;20039;-75
2022/07/18 09:40:28;;;;;;;0.98;0.40;;;31.90;49.80;;;;;;5096518;28;20612;-75
2022/07/18 09:42:58;;;;;;;1.90;0.50;;;32.10;49.20;;;;;;5097079;28;20032;-75
2022/07/18 09:45:27;;;;;;;1.58;0.40;;;32.30;49.10;;;;;;5097448;28;20028;-74
2022/07/18 09:48:03;;;;;;;2.15;0.40;;;32.50;48.50;;;;;;5095267;28;20028;-74
2022/07/18 09:50:33;;;;;;;2.45;0.40;;;32.70;48.40;;;;;;5099799;28;20039;-74
2022/07/18 09:53:14;;;;;;;3.05;0.60;;;33.00;47.80;;;;;;5083385;28;20048;-74
2022/07/18 09:55:47;;;;;;;1.63;0.63;;;33.40;47.40;;;;;;5098071;28;20047;-74
2022/07/18 09:58:16;;;;;;;2.50;0.50;;;33.70;46.70;;;;;;5059325;28;20051;-74
2022/07/18 10:00:43;;;;;;;1.55;0.55;;;33.80;45.50;;;;;;5095434;28;20028;-74
2022/07/18 10:03:09;;;;;;;2.65;0.70;;;33.80;45.70;;;;;;5101094;28;20040;-74
2022/07/18 10:05:38;;;;;;;2.17;0.60;;;33.80;45.20;;;;;;5104135;28;20042;-75
2022/07/18 10:08:11;;;;;;;1.83;0.50;;;33.80;45.10;;;;;;5098595;28;20024;-74
2022/07/18 10:10:39;;;;;;;2.15;0.47;;;33.60;45.50;;;;;;5099208;28;20028;-74
2022/07/18 10:13:07;;;;;;;4.25;0.50;;;33.50;45.60;;;;;;5097706;28;20039;-74
2022/07/18 10:15:37;;;;;;;2.38;0.50;;;33.20;45.70;;;;;;5080716;28;20058;-74
2022/07/18 10:18:06;;;;;;;2.05;0.60;;;32.90;45.90;;;;;;5104284;28;20024;-74
2022/07/18 10:20:46;;;;;;;2.33;0.50;;;32.60;46.10;;;;;;5095175;28;20036;-74
2022/07/18 10:23:24;;;;;;;2.30;0.47;;;32.50;46.60;;;;;;5091052;28;20035;-75
2022/07/18 10:26:17;;;;;;;3.92;0.60;;;32.50;46.60;;;;;;5093059;28;20023;-75
2022/07/18 10:28:55;;;;;;;1.48;0.70;;;32.70;45.90;;;;;;5093943;28;20035;-76
2022/07/18 10:31:23;;;;;;;1.55;0.82;;;32.90;46.20;;;;;;5095055;28;20403;-75
2022/07/18 10:33:50;;;;;;;2.25;1.05;;;33.10;46.00;;;;;;5078962;28;20035;-75
2022/07/18 10:36:18;;;;;;;2.20;0.77;;;33.40;46.40;;;;;;5092832;28;20036;-75
2022/07/18 10:39:04;;;;;;;3.13;0.60;;;33.60;45.50;;;;;;5094653;28;20391;-75
2022/07/18 10:41:31;;;;;;;2.47;1.15;;;33.90;45.30;;;;;;5093285;28;20028;-75
2022/07/18 10:43:57;;;;;;;3.55;1.00;;;34.10;45.10;;;;;;5088567;28;20091;-76
2022/07/18 10:46:23;;;;;;;3.80;1.00;;;34.30;45.40;;;;;;5091750;28;20036;-76
2022/07/18 10:48:52;;;;;;;3.55;0.63;;;34.60;44.90;;;;;;5088506;28;20551;-76
2022/07/18 10:51:19;;;;;;;3.63;0.90;;;34.70;44.50;;;;;;5089973;28;20025;-75
2022/07/18 10:53:55;;;;;;;1.58;0.88;;;34.70;44.40;;;;;;5098648;28;20047;-75
2022/07/18 10:56:41;;;;;;;4.50;0.82;;;34.80;44.20;;;;;;5097025;28;20043;-75
2022/07/18 10:59:25;;;;;;;1.65;0.50;;;35.00;44.20;;;;;;5088880;28;20475;-77
2022/07/18 11:01:54;;;;;;;6.05;0.52;;;35.20;43.30;;;;;;5096941;28;20028;-77
2022/07/18 11:04:34;;;;;;;1.05;0.47;;;35.40;43.00;;;;;;5076899;28;20368;-77
2022/07/18 11:07:13;;;;;;;2.55;0.40;;;35.70;42.90;;;;;;5089663;28;20375;-78
2022/07/18 11:09:45;;;;;;;1.77;0.50;;;35.90;42.40;;;;;;5092879;28;20024;-77
2022/07/18 11:12:18;;;;;;;3.47;0.60;;;36.20;42.10;;;;;;5092928;28;20031;-77
2022/07/18 11:15:13;;;;;;;2.42;0.65;;;36.50;41.20;;;;;;5099143;28;20028;-77
2022/07/18 11:18:03;;;;;;;2.08;0.73;;;36.70;41.10;;;;;;5094595;28;20039;-77
2022/07/18 11:20:38;;;;;;;1.42;0.60;;;36.90;40.80;;;;;;5097536;28;20046;-77
2022/07/18 11:23:17;;;;;;;1.90;0.50;;;37.10;40.40;;;;;;5100813;28;20037;-77
2022/07/18 11:25:45;;;;;;;5.10;0.80;;;37.30;40.70;;;;;;5098603;28;20029;-77
2022/07/18 11:28:12;;;;;;;1.33;0.50;;;37.70;40.10;;;;;;5098528;28;20680;-78
2022/07/18 11:30:39;;;;;;;1.85;0.50;;;38.00;39.30;;;;;;5050026;28;20042;-77
2022/07/18 11:33:19;;;;;;;1.35;0.50;;;38.20;39.00;;;;;;5100371;28;20028;-77
2022/07/18 11:35:45;;;;;;;2.30;0.50;;;38.20;37.90;;;;;;5070954;28;20035;-77
2022/07/18 11:38:12;;;;;;;3.97;0.57;;;38.30;38.60;;;;;;5096501;28;20044;-77
2022/07/18 11:41:08;;;;;;;1.35;0.43;;;38.60;38.80;;;;;;5081952;28;20505;-78
2022/07/18 11:43:34;;;;;;;1.20;0.50;;;39.10;38.70;;;;;;5059763;28;20051;-78
2022/07/18 11:46:09;;;;;;;3.00;0.50;;;39.30;38.10;;;;;;5099096;28;20028;-78
2022/07/18 11:48:37;;;;;;;1.15;0.50;;;39.50;37.90;;;;;;5096247;28;20042;-77
2022/07/18 11:51:15;;;;;;;4.30;0.70;;;39.70;37.50;;;;;;5096235;28;20046;-79
2022/07/18 11:53:47;;;;;;;1.83;0.68;;;39.80;36.90;;;;;;5100488;28;20149;-79
2022/07/18 11:56:14;;;;;;;1.48;0.50;;;40.00;36.80;;;;;;5079217;28;20030;-76
2022/07/18 11:58:42;;;;;;;2.33;0.60;;;40.20;37.10;;;;;;5079537;28;20043;-77
2022/07/18 12:01:09;;;;;;;1.50;0.50;;;40.60;37.10;;;;;;5077309;28;20035;-77
2022/07/18 12:03:39;;;;;;;3.50;0.90;;;40.80;36.60;;;;;;5064322;28;20036;-77
2022/07/18 12:06:18;;;;;;;2.35;0.90;;;41.00;36.20;;;;;;5094173;28;20020;-77
2022/07/18 12:08:47;;;;;;;2.20;0.77;;;41.20;36.20;;;;;;5095362;28;20442;-77
2022/07/18 12:11:21;;;;;;;1.17;0.65;;;41.40;35.90;;;;;;5093247;28;20030;-77
2022/07/18 12:13:47;;;;;;;4.35;0.60;;;41.60;35.00;;;;;;5089917;28;20048;-77
2022/07/18 12:16:27;;;;;;;1.08;0.50;;;41.60;34.70;;;;;;5092866;28;20050;-77
2022/07/18 12:19:00;;;;;;;2.83;0.65;;;41.70;35.30;;;;;;5088355;28;20483;-79
2022/07/18 12:21:57;;;;;;;1.90;0.90;;;42.00;35.30;;;;;;5069841;28;20041;-79
2022/07/18 12:24:26;;;;;;;2.70;1.75;;;42.30;34.60;;;;;;5079232;28;20499;-79
2022/07/18 12:27:18;;;;;;;4.15;1.10;;;42.60;35.00;;;;;;5059445;28;20024;-80
2022/07/18 12:30:08;;;;;;;1.65;0.70;;;43.00;34.60;;;;;;5058355;28;20029;-79
2022/07/18 12:32:55;;;;;;;2.15;0.73;;;43.40;35.10;;;;;;5079802;28;20044;-78
2022/07/18 12:35:28;;;;;;;2.53;0.80;;;43.70;33.60;;;;;;5096713;28;20028;-78
2022/07/18 12:38:01;;;;;;;3.08;0.70;;;43.70;33.30;;;;;;5083530;28;20035;-79
2022/07/18 12:41:03;;;;;;;1.70;0.70;;;43.50;32.60;;;;;;5084572;28;20142;-79
2022/07/18 12:43:37;;;;;;;1.48;0.68;;;43.40;33.20;;;;;;5092967;28;20431;-79
2022/07/18 12:46:06;;;;;;;1.30;0.70;;;43.50;32.60;;;;;;5076241;28;20467;-78
2022/07/18 12:48:34;;;;;;;1.52;0.65;;;43.60;32.00;;;;;;5081041;28;20046;-78
2022/07/18 12:51:06;;;;;;;1.98;0.73;;;43.90;32.50;;;;;;5059040;28;20045;-78
2022/07/18 12:53:35;;;;;;;2.40;0.60;;;44.20;32.40;;;;;;5058019;28;20028;-78
2022/07/18 12:56:02;;;;;;;1.30;0.70;;;44.50;31.20;;;;;;5064903;28;20382;-79